< < Back
Terminal Aerodrome Forecast


Current Version              Previous Versions:   1  2  3  4  5  6  7  8  9  

Terminal Aerodrome Forecast

601
FTUS42 KJAX 280529
TAFGNV
TAF
KGNV 280529Z 2806/2906 00000KT P6SM SCT030 BKN200
     FM281400 06004KT P6SM VCSH SCT025 BKN040
     FM281700 08008G12KT P6SM VCTS SCT025 BKN040CB
     FM290100 06004KT P6SM VCSH SCT025 BKN040=

Latest METAR

727
SAUS70 KWBC 281200 RRB
MTRGNV
METAR KGNV 281153Z 00000KT 7SM CLR 23/22 A3002 RMK AO2 SLP161 T02280222
10244 20222 53009


USA.gov is the U.S. government's official web portal to all federal, state and local government web resources and services.